createdAt,value
2017-05-18T00:00:30.611Z,61.94
2017-05-18T00:01:45.963Z,62.13
2017-05-18T00:03:01.512Z,61.74
2017-05-18T00:04:15.566Z,62.61
2017-05-18T00:05:29.731Z,62.23
2017-05-18T00:06:43.842Z,62.32
2017-05-18T00:07:57.958Z,62.61
2017-05-18T00:09:13.415Z,62.9
2017-05-18T00:10:28.747Z,62.71
2017-05-18T00:11:42.790Z,62.68
2017-05-18T00:12:58.380Z,62.58
2017-05-18T00:14:12.477Z,63.25
2017-05-18T00:15:27.880Z,63.25
2017-05-18T00:16:43.244Z,63.45
2017-05-18T00:17:58.872Z,63.25
2017-05-18T00:19:11.641Z,63.15
2017-05-18T00:20:25.703Z,63.25
2017-05-18T00:21:40.750Z,63.25
2017-05-18T00:22:53.384Z,63.54
2017-05-18T00:24:07.685Z,63.45
2017-05-18T00:25:23.006Z,63.54
2017-05-18T00:26:37.986Z,63.83
2017-05-18T00:27:53.328Z,64.12
2017-05-18T00:29:09.108Z,63.73
2017-05-18T00:30:24.440Z,64.22
2017-05-18T00:31:39.816Z,63.83
2017-05-18T00:32:53.742Z,64.12
2017-05-18T00:34:09.365Z,64.22
2017-05-18T00:35:24.760Z,64.4
2017-05-18T00:36:38.801Z,64.5
2017-05-18T00:37:54.154Z,64.4
2017-05-18T00:39:08.441Z,64.5
2017-05-18T00:40:21.269Z,64.6
2017-05-18T00:41:36.844Z,64.79
2017-05-18T00:42:50.910Z,64.69
2017-05-18T00:44:06.444Z,64.56
2017-05-18T00:45:21.774Z,64.22
2017-05-18T00:46:34.613Z,64.5
2017-05-18T00:47:48.523Z,64.76
2017-05-18T00:49:04.289Z,64.95
2017-05-18T00:50:18.397Z,64.85
2017-05-18T00:51:32.468Z,64.76
2017-05-18T00:52:46.487Z,64.95
2017-05-18T00:54:32.888Z,64.95
2017-05-18T00:55:48.261Z,64.85
2017-05-18T00:57:03.592Z,64.85
2017-05-18T00:58:17.503Z,65.33
2017-05-18T00:59:33.038Z,65.23
2017-05-18T01:00:47.194Z,65.23
2017-05-18T01:02:01.405Z,65.62
2017-05-18T01:03:15.514Z,65.53
2017-05-18T01:04:29.565Z,65.33
2017-05-18T01:05:44.860Z,65.33
2017-05-18T01:07:00.440Z,65.33
2017-05-18T01:08:14.487Z,65.33
2017-05-18T01:09:29.890Z,65.72
2017-05-18T01:10:42.867Z,65.43
2017-05-18T01:11:58.439Z,65.14
2017-05-18T01:13:13.877Z,65.43
2017-05-18T01:14:27.937Z,65.81
2017-05-18T01:15:43.614Z,65.72
2017-05-18T01:16:58.981Z,65.53
2017-05-18T01:18:13.249Z,65.43
2017-05-18T01:19:27.321Z,65.72
2017-05-18T01:20:41.615Z,65.62
2017-05-18T01:21:55.713Z,65.91
2017-05-18T01:23:11.054Z,65.81
2017-05-18T01:24:26.394Z,65.78
2017-05-18T01:25:41.951Z,65.69
2017-05-18T01:26:57.513Z,65.49
2017-05-18T01:28:11.629Z,66.1
2017-05-18T01:29:27.192Z,66.07
2017-05-18T01:30:42.730Z,66.16
2017-05-18T01:31:58.097Z,66.16
2017-05-18T01:33:13.450Z,66.07
2017-05-18T01:34:28.946Z,66.16
2017-05-18T01:35:44.681Z,66.16
2017-05-18T01:37:00.020Z,66.36
2017-05-18T01:38:14.086Z,66.36
2017-05-18T01:39:28.231Z,66.26
2017-05-18T01:40:41.110Z,66.07
2017-05-18T01:41:56.440Z,66.74
2017-05-18T01:43:11.810Z,66.55
2017-05-18T01:44:25.956Z,66.26
2017-05-18T01:45:40.227Z,66.36
2017-05-18T01:46:55.573Z,66.64
2017-05-18T01:48:08.210Z,66.26
2017-05-18T01:49:22.136Z,66.16
2017-05-18T01:50:37.543Z,66.84
2017-05-18T01:51:51.768Z,66.55
2017-05-18T01:53:07.175Z,66.55
2017-05-18T01:54:22.527Z,66.84
2017-05-18T01:55:37.921Z,66.84
2017-05-18T01:56:53.559Z,66.74
2017-05-18T01:58:09.161Z,66.46
2017-05-18T01:59:21.791Z,66.84
2017-05-18T02:00:37.213Z,66.64
2017-05-18T02:01:52.879Z,66.52
2017-05-18T02:03:07.070Z,66.61
2017-05-18T02:04:21.273Z,67.19
2017-05-18T02:06:07.662Z,67.09
2017-05-18T02:07:22.994Z,66.61
2017-05-18T02:08:37.093Z,66.61
2017-05-18T02:09:49.870Z,67.19
2017-05-18T02:11:03.978Z,67.19
2017-05-18T02:12:18.162Z,67
2017-05-18T02:13:30.918Z,67.03
2017-05-18T02:14:44.980Z,67.09
2017-05-18T02:16:00.418Z,67
2017-05-18T02:17:14.666Z,67
2017-05-18T02:18:30.253Z,66.9
2017-05-18T02:19:44.192Z,67.19
2017-05-18T02:20:56.957Z,67.09
2017-05-18T02:22:12.490Z,67.09
2017-05-18T02:23:26.539Z,67.09
2017-05-18T02:24:41.868Z,67
2017-05-18T02:25:57.214Z,67.19
2017-05-18T02:27:12.809Z,67.38
2017-05-18T02:28:27.005Z,67.47
2017-05-18T02:29:42.339Z,67.38
2017-05-18T02:30:56.417Z,67.57
2017-05-18T02:32:12.017Z,67.57
2017-05-18T02:33:26.312Z,67.29
2017-05-18T02:34:39.074Z,67.47
2017-05-18T02:35:53.135Z,67.47
2017-05-18T02:37:08.468Z,67.38
2017-05-18T02:38:24.045Z,67.47
2017-05-18T02:39:38.215Z,67.86
2017-05-18T02:40:53.552Z,68.15
2017-05-18T02:42:08.877Z,68.05
2017-05-18T02:43:24.591Z,67.76
2017-05-18T02:44:39.987Z,67.76
2017-05-18T02:45:55.368Z,68.24
2017-05-18T02:47:10.696Z,68.24
2017-05-18T02:48:26.239Z,68.34
2017-05-18T02:49:41.609Z,68.63
2017-05-18T02:50:56.945Z,68.24
2017-05-18T02:52:12.704Z,68.34
2017-05-18T02:53:28.239Z,68.73
2017-05-18T02:54:42.342Z,68.24
2017-05-18T02:55:57.669Z,68.5
2017-05-18T02:57:11.729Z,68.5
2017-05-18T02:58:23.441Z,68.59
2017-05-18T02:59:36.203Z,68.34
2017-05-18T03:00:51.563Z,68.05
2017-05-18T03:02:06.900Z,68.21
2017-05-18T03:03:22.246Z,68.3
2017-05-18T03:04:37.625Z,68.4
2017-05-18T03:05:51.720Z,68.3
2017-05-18T03:07:05.630Z,68.12
2017-05-18T03:08:21.252Z,68.5
2017-05-18T03:09:36.584Z,68.5
2017-05-18T03:10:50.699Z,68.4
2017-05-18T03:12:06.030Z,68.4
2017-05-18T03:13:19.974Z,68.59
2017-05-18T03:14:34.258Z,68.69
2017-05-18T03:15:49.603Z,68.69
2017-05-18T03:17:04.573Z,68.69
2017-05-18T03:18:18.653Z,68.79
2017-05-18T03:19:34.178Z,68.79
2017-05-18T03:20:49.544Z,68.88
2017-05-18T03:22:03.678Z,68.88
2017-05-18T03:23:19.037Z,68.88
2017-05-18T03:24:33.364Z,68.79
2017-05-18T03:25:47.662Z,68.79
2017-05-18T03:27:03.018Z,68.98
2017-05-18T03:28:17.090Z,69.36
2017-05-18T03:29:31.377Z,69.26
2017-05-18T03:30:46.754Z,69.46
2017-05-18T03:32:00.838Z,69.26
2017-05-18T03:33:16.170Z,69.46
2017-05-18T03:34:31.801Z,69.07
2017-05-18T03:35:47.333Z,69.65
2017-05-18T03:37:02.684Z,69.93
2017-05-18T03:38:18.046Z,69.65
2017-05-18T03:39:33.631Z,69.65
2017-05-18T03:40:47.576Z,69.65
2017-05-18T03:42:02.918Z,69.56
2017-05-18T03:43:15.538Z,69.74
2017-05-18T03:44:30.008Z,69.56
2017-05-18T03:45:44.120Z,69.65
2017-05-18T03:46:59.461Z,69.65
2017-05-18T03:48:13.514Z,69.46
2017-05-18T03:49:27.596Z,69.93
2017-05-18T03:50:41.886Z,69.93
2017-05-18T03:51:57.227Z,69.71
2017-05-18T03:53:11.288Z,69.74
2017-05-18T03:54:25.615Z,69.84
2017-05-18T03:55:41.383Z,70.03
2017-05-18T03:56:55.668Z,69.74
2017-05-18T03:58:09.793Z,70.13
2017-05-18T03:59:23.863Z,70.13
2017-05-18T04:00:38.217Z,69.93
2017-05-18T04:01:52.656Z,69.93
2017-05-18T04:03:06.752Z,70.23
2017-05-18T04:04:19.503Z,70.38
2017-05-18T04:05:35.338Z,70.51
2017-05-18T04:06:50.722Z,70.13
2017-05-18T04:08:06.136Z,70.29
2017-05-18T04:09:19.086Z,70.48
2017-05-18T04:10:34.637Z,70.67
2017-05-18T04:11:50.013Z,70.42
2017-05-18T04:13:04.994Z,70.09
2017-05-18T04:14:20.345Z,70.32
2017-05-18T04:15:34.643Z,70.42
2017-05-18T04:16:50.013Z,70.32
2017-05-18T04:18:03.096Z,70.32
2017-05-18T04:19:17.197Z,70.32
2017-05-18T04:20:32.538Z,70.51
2017-05-18T04:21:48.073Z,70.23
2017-05-18T04:23:03.440Z,70.42
2017-05-18T04:24:18.787Z,70.23
2017-05-18T04:25:34.169Z,70.32
2017-05-18T04:26:49.934Z,70.32
2017-05-18T04:28:05.272Z,70.32
2017-05-18T04:29:20.612Z,69.65
2017-05-18T04:30:35.986Z,69.84
2017-05-18T04:31:51.609Z,69.93
2017-05-18T04:33:05.911Z,69.74
2017-05-18T04:34:21.340Z,69.74
2017-05-18T04:35:36.673Z,69.74
2017-05-18T04:36:49.645Z,69.46
2017-05-18T04:38:04.984Z,69.56
2017-05-18T04:39:17.376Z,69.56
2017-05-18T04:41:03.819Z,69.17
2017-05-18T04:42:19.249Z,69.17
2017-05-18T04:43:33.308Z,69.26
2017-05-18T04:44:47.364Z,69.3
2017-05-18T04:46:02.969Z,69.11
2017-05-18T04:47:18.308Z,69.11
2017-05-18T04:48:32.045Z,68.91
2017-05-18T04:49:47.387Z,69.11
2017-05-18T04:51:03.017Z,69.01
2017-05-18T04:52:18.362Z,68.63
2017-05-18T04:53:33.689Z,68.63
2017-05-18T04:54:46.444Z,68.91
2017-05-18T04:55:59.242Z,68.73
2017-05-18T04:57:13.499Z,68.63
2017-05-18T04:58:27.175Z,68.44
2017-05-18T04:59:41.234Z,68.53
2017-05-18T05:00:56.881Z,68.44
2017-05-18T05:02:12.443Z,68.44
2017-05-18T05:03:26.492Z,68.34
2017-05-18T05:04:39.270Z,68.44
2017-05-18T05:05:54.616Z,68.24
2017-05-18T05:07:09.817Z,68.34
2017-05-18T05:08:21.378Z,68.73
2017-05-18T05:09:36.729Z,68.24
2017-05-18T05:10:52.069Z,68.34
2017-05-18T05:12:07.651Z,68.15
2017-05-18T05:13:23.119Z,67.99
2017-05-18T05:14:38.687Z,67.76
2017-05-18T05:15:54.187Z,67.61
2017-05-18T05:17:09.752Z,67.51
2017-05-18T05:18:24.735Z,67.7
2017-05-18T05:19:40.104Z,66.84
2017-05-18T05:20:55.513Z,67.22
2017-05-18T05:22:09.774Z,67.32
2017-05-18T05:23:25.128Z,67.03
2017-05-18T05:24:37.899Z,67.32
2017-05-18T05:25:51.980Z,66.74
2017-05-18T05:27:07.435Z,66.74
2017-05-18T05:28:21.850Z,66.87
2017-05-18T05:29:37.284Z,66.3
2017-05-18T05:30:52.644Z,66.2
2017-05-18T05:32:05.437Z,66.39
2017-05-18T05:33:21.006Z,66.2
2017-05-18T05:34:35.063Z,66.1
2017-05-18T05:35:49.163Z,66.1
2017-05-18T05:37:01.935Z,66.3
2017-05-18T05:38:16.194Z,65.81
2017-05-18T05:39:31.539Z,65.72
2017-05-18T05:40:45.855Z,65.27
2017-05-18T05:42:01.191Z,65.33
2017-05-18T05:43:14.036Z,65.53
2017-05-18T05:44:29.368Z,65.56
2017-05-18T05:45:44.899Z,65.27
2017-05-18T05:46:58.858Z,65.46
2017-05-18T05:48:11.517Z,64.98
2017-05-18T05:49:25.867Z,65.08
2017-05-18T05:50:41.048Z,64.5
2017-05-18T05:51:56.451Z,64.22
2017-05-18T05:53:11.818Z,64.5
2017-05-18T05:54:27.357Z,64.69
2017-05-18T05:55:42.704Z,64.12
2017-05-18T05:56:58.097Z,64.22
2017-05-18T05:58:12.038Z,64.02
2017-05-18T05:59:26.286Z,63.25
2017-05-18T06:00:40.343Z,63.45
2017-05-18T06:01:55.947Z,63.15
2017-05-18T06:03:11.364Z,63.64
2017-05-18T06:04:26.910Z,63.25
2017-05-18T06:05:40.818Z,63.15
2017-05-18T06:06:56.252Z,63.15
2017-05-18T06:08:11.856Z,62.68
2017-05-18T06:09:27.711Z,62.68
2017-05-18T06:10:43.077Z,62.58
2017-05-18T06:11:57.132Z,62.38
2017-05-18T06:13:12.703Z,62.96
2017-05-18T06:14:28.317Z,62.58
2017-05-18T06:15:42.382Z,62.96
2017-05-18T06:16:56.346Z,62.48
2017-05-18T06:18:11.719Z,62.71
2017-05-18T06:19:27.274Z,62.41
2017-05-18T06:20:42.681Z,62.41
2017-05-18T06:21:58.065Z,62.71
2017-05-18T06:23:13.399Z,62.13
2017-05-18T06:24:27.673Z,61.84
2017-05-18T06:25:43.186Z,62.16
2017-05-18T06:26:57.098Z,61.97
2017-05-18T06:28:11.362Z,61.97
2017-05-18T06:29:26.949Z,61.77
2017-05-18T06:30:40.990Z,61.29
2017-05-18T06:31:54.928Z,61.1
2017-05-18T06:33:07.721Z,61.49
2017-05-18T06:34:23.063Z,60.72
2017-05-18T06:35:38.610Z,61.1
2017-05-18T06:36:53.966Z,61
2017-05-18T06:38:09.301Z,61.1
2017-05-18T06:39:24.652Z,61
2017-05-18T06:40:38.912Z,60.52
2017-05-18T06:41:54.301Z,60.52
2017-05-18T06:43:09.675Z,60.52
2017-05-18T06:44:25.001Z,60.55
2017-05-18T06:45:40.579Z,60.46
2017-05-18T06:46:56.034Z,60.17
2017-05-18T06:48:11.397Z,60.55
2017-05-18T06:49:25.450Z,60.65
2017-05-18T06:50:41.030Z,60.36
2017-05-18T06:51:56.384Z,59.88
2017-05-18T06:53:11.783Z,60.27
2017-05-18T06:54:27.115Z,59.69
2017-05-18T06:55:42.652Z,59.97
2017-05-18T06:56:56.736Z,59.72
2017-05-18T06:58:12.132Z,59.72
2017-05-18T06:59:26.203Z,59.91
2017-05-18T07:00:41.394Z,59.62
2017-05-18T07:01:56.736Z,59.33
2017-05-18T07:03:12.123Z,59.52
2017-05-18T07:04:24.900Z,59.33
2017-05-18T07:05:37.915Z,59.23
2017-05-18T07:06:52.185Z,58.85
2017-05-18T07:08:07.637Z,58.47
2017-05-18T07:09:21.744Z,58.75
2017-05-18T07:10:37.281Z,58.85
2017-05-18T07:11:52.634Z,58.97
2017-05-18T07:13:08.000Z,58.49
2017-05-18T07:14:21.940Z,58.97
2017-05-18T07:15:36.034Z,58.49
2017-05-18T07:16:51.624Z,58.11
2017-05-18T07:18:05.537Z,58.59
2017-05-18T07:19:20.889Z,58.69
2017-05-18T07:20:36.260Z,58.2
2017-05-18T07:21:51.902Z,57.92
2017-05-18T07:23:07.273Z,58.01
2017-05-18T07:24:21.332Z,57.62
2017-05-18T07:25:36.671Z,57.62
2017-05-18T07:26:52.275Z,57.62
2017-05-18T07:28:07.694Z,57.72
2017-05-18T07:29:23.041Z,57.37
2017-05-18T07:30:37.103Z,57.56
2017-05-18T07:31:51.364Z,57.75
2017-05-18T07:33:06.782Z,57.56
2017-05-18T07:34:22.234Z,57.27
2017-05-18T07:35:37.583Z,57.07
2017-05-18T07:36:53.503Z,57.27
2017-05-18T07:38:08.889Z,57.29
2017-05-18T07:39:22.834Z,57.2
2017-05-18T07:40:38.212Z,57.29
2017-05-18T07:41:53.845Z,57.01
2017-05-18T07:43:09.213Z,57.39
2017-05-18T07:44:24.592Z,56.81
2017-05-18T07:45:39.948Z,57.2
2017-05-18T07:46:55.535Z,56.94
2017-05-18T07:48:15.863Z,56.74
2017-05-18T07:49:31.445Z,56.65
2017-05-18T07:50:44.335Z,56.56
2017-05-18T07:51:59.689Z,55.78
2017-05-18T08:00:33.675Z,55.68
2017-05-18T08:01:49.038Z,55.71
2017-05-18T08:03:04.387Z,55.81
2017-05-18T08:04:19.733Z,55.71
2017-05-18T08:05:35.292Z,55.23
2017-05-18T08:06:49.255Z,55.33
2017-05-18T08:08:04.611Z,55.04
2017-05-18T08:09:18.649Z,55.33
2017-05-18T08:10:34.486Z,55.04
2017-05-18T08:11:49.839Z,54.46
2017-05-18T08:13:05.541Z,54.49
2017-05-18T08:14:19.525Z,54.58
2017-05-18T08:15:35.131Z,53.71
2017-05-18T08:16:50.510Z,53.23
2017-05-18T08:18:06.006Z,53.55
2017-05-18T08:19:21.343Z,53.35
2017-05-18T08:20:37.177Z,53.25
2017-05-18T08:21:51.228Z,52.8
2017-05-18T08:23:06.598Z,51.81
2017-05-18T08:24:22.161Z,52.02
2017-05-18T08:25:37.798Z,51.25
2017-05-18T08:26:51.748Z,50.86
2017-05-18T08:28:07.105Z,50.57
2017-05-18T08:29:22.463Z,49.63
2017-05-18T08:30:37.943Z,49.82
2017-05-18T08:31:52.182Z,49.63
2017-05-18T08:33:06.284Z,49.24
2017-05-18T08:34:19.049Z,49.46
2017-05-18T08:35:33.174Z,48.69
2017-05-18T08:36:47.575Z,48.22
2017-05-18T08:38:01.803Z,47.64
2017-05-18T08:39:17.181Z,47.45
2017-05-18T08:40:32.158Z,47.19
2017-05-18T08:41:47.708Z,46.33
2017-05-18T08:43:03.101Z,45.12
2017-05-18T08:44:18.460Z,44.09
2017-05-18T08:46:05.006Z,42.46
2017-05-18T08:47:17.728Z,41.63
2017-05-18T08:48:33.077Z,41.16
2017-05-18T08:49:48.060Z,40.11
2017-05-18T08:51:02.395Z,39.72
2017-05-18T08:52:16.505Z,39.75
2017-05-18T08:53:30.685Z,38.69
2017-05-18T08:54:46.039Z,38.61
2017-05-18T08:56:00.170Z,38.04
2017-05-18T08:57:15.743Z,37.38
2017-05-18T08:58:31.337Z,35.94
2017-05-18T08:59:46.708Z,34.78
2017-05-18T09:01:00.692Z,34.89
2017-05-18T09:02:14.958Z,34.8
2017-05-18T09:03:30.362Z,33.74
2017-05-18T09:04:45.823Z,33.36
2017-05-18T09:06:01.201Z,32.6
2017-05-18T09:07:16.842Z,32.79
2017-05-18T09:08:30.935Z,31.83
2017-05-18T09:09:45.246Z,30.94
2017-05-18T09:10:59.408Z,30.37
2017-05-18T09:12:12.402Z,30.47
2017-05-18T09:13:25.190Z,30.46
2017-05-18T09:14:39.263Z,30.36
2017-05-18T09:15:54.311Z,29.97
2017-05-18T09:17:08.631Z,30.27
2017-05-18T09:18:24.181Z,29.88
2017-05-18T09:19:39.607Z,29.3
2017-05-18T09:20:54.979Z,29.11
2017-05-18T09:22:08.059Z,29.1
2017-05-18T09:23:22.160Z,28.41
2017-05-18T09:24:36.292Z,28.91
2017-05-18T09:25:50.358Z,28.82
2017-05-18T09:27:05.630Z,28.91
2017-05-18T09:28:21.265Z,28.92
2017-05-18T09:29:35.329Z,28.43
2017-05-18T09:30:50.829Z,28.13
2017-05-18T09:32:06.443Z,28.53
2017-05-18T09:33:21.781Z,28.33
2017-05-18T09:34:37.150Z,28.61
2017-05-18T09:35:52.527Z,28.51
2017-05-18T09:37:07.569Z,28.43
2017-05-18T09:38:23.143Z,28.31
2017-05-18T09:39:38.548Z,28.22
2017-05-18T09:40:54.032Z,28.41
2017-05-18T09:42:09.668Z,28.81
2017-05-18T09:43:25.271Z,28.63
2017-05-18T09:44:40.657Z,28.05
2017-05-18T09:45:54.614Z,27.28
2017-05-18T09:47:07.451Z,27
2017-05-18T09:48:23.068Z,26.91
2017-05-18T09:49:38.437Z,26.72
2017-05-18T09:50:53.791Z,26.34
2017-05-18T09:52:07.901Z,26.53
2017-05-18T09:53:22.266Z,25.46
2017-05-18T09:54:37.615Z,25.38
2017-05-18T09:55:52.995Z,24.79
2017-05-18T09:57:08.478Z,25.18
2017-05-18T09:58:24.037Z,25.17
2017-05-18T09:59:38.154Z,25.26
2017-05-18T10:00:53.635Z,25.34
2017-05-18T10:02:09.003Z,25.82
2017-05-18T10:03:23.274Z,25.71
2017-05-18T10:04:38.623Z,25.99
2017-05-18T10:05:54.069Z,26.67
2017-05-18T10:07:09.707Z,26.95
2017-05-18T10:08:23.942Z,27.24
2017-05-18T10:09:37.654Z,27.34
2017-05-18T10:10:51.390Z,27.42
2017-05-18T10:12:06.752Z,27.91
2017-05-18T10:13:22.343Z,28.39
2017-05-18T10:14:37.787Z,28.68
2017-05-18T10:15:53.169Z,28.78
2017-05-18T10:17:08.539Z,29.07
2017-05-18T10:18:22.450Z,28.69
2017-05-18T10:19:37.810Z,28.5
2017-05-18T10:20:53.309Z,27.83
2017-05-18T10:22:06.108Z,27.83
2017-05-18T10:23:20.058Z,27.25
2017-05-18T10:24:34.388Z,26.67
2017-05-18T10:25:49.801Z,27.25
2017-05-18T10:27:03.885Z,27.15
2017-05-18T10:28:17.831Z,27.25
2017-05-18T10:29:33.414Z,26.86
2017-05-18T10:30:46.220Z,26.56
2017-05-18T10:32:00.289Z,26.46
2017-05-18T10:33:15.717Z,26.46
2017-05-18T10:34:31.148Z,26.45
2017-05-18T10:35:46.496Z,26.45
2017-05-18T10:37:00.616Z,26.46
2017-05-18T10:38:16.110Z,26.17
2017-05-18T10:39:31.795Z,26.17
2017-05-18T10:40:47.162Z,26.17
2017-05-18T10:42:01.326Z,26.07
2017-05-18T10:43:16.717Z,26.68
2017-05-18T10:44:30.902Z,26.1
2017-05-18T10:45:44.961Z,26.1
2017-05-18T10:46:57.833Z,25.32
2017-05-18T10:48:11.959Z,25.13
2017-05-18T10:49:27.630Z,25.33
2017-05-18T10:50:41.968Z,25.23
2017-05-18T10:51:56.967Z,25.61
2017-05-18T10:53:09.615Z,25.71
2017-05-18T10:54:25.248Z,25.81
2017-05-18T10:55:39.392Z,26.48
2017-05-18T10:56:53.578Z,26.28
2017-05-18T10:58:07.292Z,26.38
2017-05-18T10:59:22.690Z,26.56
2017-05-18T11:00:38.311Z,26.46
2017-05-18T11:01:52.395Z,26.17
2017-05-18T11:03:06.491Z,26.27
2017-05-18T11:04:20.576Z,26.45
2017-05-18T11:05:36.215Z,26.45
2017-05-18T11:06:50.301Z,26.73
2017-05-18T11:08:03.230Z,26.54
2017-05-18T11:09:18.663Z,26.64
2017-05-18T11:10:34.226Z,26.25
2017-05-18T11:11:47.020Z,26.35
2017-05-18T11:13:02.632Z,26.16
2017-05-18T11:14:16.625Z,26.26
2017-05-18T11:15:30.900Z,26.35
2017-05-18T11:16:45.000Z,26.44
2017-05-18T11:17:57.805Z,26.64
2017-05-18T11:19:10.599Z,26.44
2017-05-18T11:20:24.683Z,26.15
2017-05-18T11:21:40.500Z,26.16
2017-05-18T11:22:56.008Z,26.15
2017-05-18T11:24:11.412Z,26.54
2017-05-18T11:25:25.482Z,26.72
2017-05-18T11:26:41.362Z,26.43
2017-05-18T11:27:56.775Z,26.62
2017-05-18T11:29:10.915Z,26.23
2017-05-18T11:30:26.321Z,26.43
2017-05-18T11:31:41.949Z,26.53
2017-05-18T11:32:53.307Z,26.34
2017-05-18T11:34:08.701Z,26.25
2017-05-18T11:35:24.083Z,25.96
2017-05-18T11:36:38.390Z,25.88
2017-05-18T11:37:52.344Z,25.78
2017-05-18T11:39:07.739Z,25.2
2017-05-18T11:40:21.817Z,25.01
2017-05-18T11:41:35.893Z,25.5
2017-05-18T11:42:50.010Z,25.5
2017-05-18T11:44:04.142Z,25.98
2017-05-18T11:45:19.512Z,26.16
2017-05-18T11:46:33.680Z,26.16
2017-05-18T11:47:47.759Z,25.87
2017-05-18T11:48:59.269Z,25.68
2017-05-18T11:50:14.658Z,25.2
2017-05-18T11:51:30.077Z,24.9
2017-05-18T11:52:44.282Z,24.99
2017-05-18T11:53:58.427Z,25.29
2017-05-18T11:55:13.849Z,25.29
2017-05-18T11:56:29.215Z,25.29
2017-05-18T11:57:44.905Z,25.01
2017-05-18T11:59:00.331Z,25.4
2017-05-18T12:00:13.158Z,25.4
2017-05-18T12:01:28.599Z,25.11
2017-05-18T12:02:42.906Z,24.82
2017-05-18T12:03:58.275Z,25.12
2017-05-18T12:05:13.651Z,25.02
2017-05-18T12:06:29.035Z,25.13
2017-05-18T12:07:43.359Z,24.92
2017-05-18T12:08:56.159Z,25.32
2017-05-18T12:10:11.589Z,24.92
2017-05-18T12:11:26.998Z,24.73
2017-05-18T12:12:39.920Z,24.92
2017-05-18T12:13:55.305Z,24.71
2017-05-18T12:15:10.751Z,23.74
2017-05-18T12:16:24.832Z,25.01
2017-05-18T12:17:40.526Z,24.99
2017-05-18T12:18:55.903Z,25.1
2017-05-18T12:20:11.316Z,25.18
2017-05-18T12:21:26.701Z,25.17
2017-05-18T12:22:36.794Z,25.17
2017-05-18T12:23:52.347Z,25.56
2017-05-18T12:25:07.720Z,25.95
2017-05-18T12:26:23.184Z,26.06
2017-05-18T12:27:38.411Z,25.87
2017-05-18T12:28:54.028Z,25.28
2017-05-18T12:30:09.397Z,25.87
2017-05-18T12:31:24.796Z,25.95
2017-05-18T12:32:38.778Z,26.05
2017-05-18T12:33:53.211Z,26.15
2017-05-18T12:35:04.370Z,26.83
2017-05-18T12:36:18.090Z,26.64
2017-05-18T12:37:33.490Z,26.15
2017-05-18T12:38:47.541Z,26.14
2017-05-18T12:40:01.704Z,26.43
2017-05-18T12:41:15.671Z,26.62
2017-05-18T12:42:31.047Z,26.53
2017-05-18T12:43:43.904Z,26.22
2017-05-18T12:44:59.550Z,27.1
2017-05-18T12:46:14.934Z,26.7
2017-05-18T12:47:30.521Z,27.28
2017-05-18T12:48:45.904Z,27.48
2017-05-18T12:50:01.726Z,27.19
2017-05-18T12:51:17.411Z,27.95
2017-05-18T12:52:32.803Z,27.97
2017-05-18T12:53:46.898Z,28.26
2017-05-18T12:55:02.501Z,28.64
2017-05-18T12:56:17.873Z,28.74
2017-05-18T12:57:31.945Z,28.64
2017-05-18T12:58:43.452Z,28.74
2017-05-18T12:59:59.032Z,28.72
2017-05-18T13:01:14.539Z,28.72
2017-05-18T13:02:29.923Z,29.02
2017-05-18T13:03:44.027Z,29.7
2017-05-18T13:04:59.805Z,29.31
2017-05-18T13:06:15.214Z,29.1
2017-05-18T13:07:30.591Z,29.39
2017-05-18T13:08:46.127Z,29.39
2017-05-18T13:10:01.732Z,29.39
2017-05-18T13:11:17.110Z,29.59
2017-05-18T13:12:31.242Z,30.18
2017-05-18T13:13:45.339Z,30.18
2017-05-18T13:15:01.005Z,30.18
2017-05-18T13:16:16.008Z,30.35
2017-05-18T13:17:31.413Z,30.74
2017-05-18T13:18:46.812Z,30.45
2017-05-18T13:20:01.141Z,30.35
2017-05-18T13:21:16.777Z,30.26
2017-05-18T13:22:32.191Z,30.65
2017-05-18T13:23:47.600Z,30.54
2017-05-18T13:25:01.742Z,30.63
2017-05-18T13:26:15.830Z,30.44
2017-05-18T13:27:29.545Z,30.73
2017-05-18T13:28:44.925Z,30.83
2017-05-18T13:30:00.567Z,30.93
2017-05-18T13:31:15.967Z,31.02
2017-05-18T13:32:31.343Z,31.02
2017-05-18T13:33:46.786Z,31.31
2017-05-18T13:35:01.032Z,31.7
2017-05-18T13:36:15.205Z,31.41
2017-05-18T13:37:30.236Z,31.31
2017-05-18T13:38:43.106Z,31.51
2017-05-18T13:39:57.228Z,31.51
2017-05-18T13:41:12.891Z,31.8
2017-05-18T13:42:26.864Z,31.7
2017-05-18T13:43:40.963Z,31.7
2017-05-18T13:44:56.332Z,31.7
2017-05-18T13:46:12.275Z,31.69
2017-05-18T13:47:26.366Z,31.6
2017-05-18T13:48:40.469Z,31.51
2017-05-18T13:49:54.571Z,31.51
2017-05-18T13:51:10.153Z,31.22
2017-05-18T13:52:25.550Z,30.83
2017-05-18T13:53:39.638Z,30.54
2017-05-18T13:54:53.702Z,30.73
2017-05-18T13:56:09.292Z,30.83
2017-05-18T13:57:23.363Z,30.73
2017-05-18T13:58:39.642Z,30.83
2017-05-18T13:59:55.016Z,30.93
2017-05-18T14:01:09.180Z,31.22
2017-05-18T14:02:24.875Z,31.12
2017-05-18T14:03:40.258Z,31.12
2017-05-18T14:04:54.343Z,31.22
2017-05-18T14:06:08.666Z,31.31
2017-05-18T14:07:24.162Z,31.01
2017-05-18T14:08:38.255Z,31.12
2017-05-18T14:09:52.383Z,30.81
2017-05-18T14:11:07.789Z,30.81
2017-05-18T14:12:20.828Z,31.01
2017-05-18T14:13:34.936Z,31.01
2017-05-18T14:14:50.304Z,31.1
2017-05-18T14:16:05.987Z,31.2
2017-05-18T14:17:21.609Z,31.3
2017-05-18T14:18:36.823Z,31.3
2017-05-18T14:19:50.919Z,31.2
2017-05-18T14:21:06.320Z,31.59
2017-05-18T14:22:21.943Z,31.59
2017-05-18T14:23:36.079Z,31.2
2017-05-18T14:24:51.472Z,31.1
2017-05-18T14:26:06.996Z,31.2
2017-05-18T14:27:22.640Z,31.4
2017-05-18T14:28:36.732Z,31.49
2017-05-18T14:29:50.710Z,31.49
2017-05-18T14:31:06.096Z,31.4
2017-05-18T14:32:21.759Z,31.49
2017-05-18T14:33:37.194Z,31.2
2017-05-18T14:34:51.425Z,30.91
2017-05-18T14:36:06.815Z,30.81
2017-05-18T14:37:21.176Z,31.02
2017-05-18T14:38:36.902Z,30.91
2017-05-18T14:39:52.315Z,31.01
2017-05-18T14:41:07.836Z,30.63
2017-05-18T14:42:23.292Z,30.71
2017-05-18T14:43:37.365Z,30.44
2017-05-18T14:44:51.453Z,30.54
2017-05-18T14:46:06.858Z,30.54
2017-05-18T14:47:53.373Z,31.01
2017-05-18T14:49:08.777Z,31.02
2017-05-18T14:50:22.739Z,31.02
2017-05-18T14:51:38.126Z,30.91
2017-05-18T14:52:53.730Z,30.91
2017-05-18T14:54:06.531Z,31.12
2017-05-18T14:55:20.613Z,31.02
2017-05-18T14:56:36.019Z,30.93
2017-05-18T14:57:51.660Z,31.01
2017-05-18T14:59:07.046Z,31.22
2017-05-18T15:00:22.444Z,30.93
2017-05-18T15:01:37.825Z,30.93
2017-05-18T15:02:53.468Z,30.81
2017-05-18T15:04:07.673Z,30.91
2017-05-18T15:05:23.122Z,30.81
2017-05-18T15:06:38.753Z,30.91
2017-05-18T15:07:52.869Z,31.3
2017-05-18T15:09:08.568Z,31.49
2017-05-18T15:10:23.577Z,31.28
2017-05-18T15:11:37.756Z,31.28
2017-05-18T15:12:53.236Z,31.09
2017-05-18T15:14:06.165Z,31.19
2017-05-18T15:15:17.296Z,31.38
2017-05-18T15:16:32.660Z,31.38
2017-05-18T15:17:48.092Z,31.38
2017-05-18T15:19:02.529Z,31.28
2017-05-18T15:20:17.895Z,30.99
2017-05-18T15:21:33.252Z,30.9
2017-05-18T15:22:47.384Z,30.7
2017-05-18T15:24:03.009Z,30.9
2017-05-18T15:25:18.392Z,31.19
2017-05-18T15:26:33.838Z,30.9
2017-05-18T15:27:45.246Z,31.09
2017-05-18T15:29:00.929Z,30.9
2017-05-18T15:30:16.376Z,30.7
2017-05-18T15:31:30.439Z,30.9
2017-05-18T15:32:45.959Z,30.8
2017-05-18T15:34:00.116Z,30.6
2017-05-18T15:35:14.519Z,30.6
2017-05-18T15:36:29.918Z,30.6
2017-05-18T15:37:43.948Z,30.9
2017-05-18T15:38:59.411Z,30.9
2017-05-18T15:40:14.997Z,30.9
2017-05-18T15:41:30.423Z,30.8
2017-05-18T15:42:44.612Z,30.99
2017-05-18T15:43:58.691Z,30.99
2017-05-18T15:45:14.348Z,30.9
2017-05-18T15:46:28.079Z,30.99
2017-05-18T15:47:42.190Z,30.9
2017-05-18T15:48:56.145Z,30.8
2017-05-18T15:50:10.491Z,30.99
2017-05-18T15:51:24.572Z,30.9
2017-05-18T15:52:39.950Z,30.8
2017-05-18T15:53:52.739Z,30.8
2017-05-18T15:55:08.391Z,30.41
2017-05-18T15:56:23.975Z,30.42
2017-05-18T15:57:39.362Z,30.42
2017-05-18T15:58:54.847Z,30.42
2017-05-18T16:00:10.756Z,30.42
2017-05-18T16:01:26.135Z,29.56
2017-05-18T16:02:41.551Z,30.24
2017-05-18T16:03:57.017Z,29.93
2017-05-18T16:05:12.640Z,29.85
2017-05-18T16:06:28.012Z,30.15
2017-05-18T16:07:43.376Z,30.62
2017-05-18T16:08:58.741Z,30.62
2017-05-18T16:10:13.068Z,30.91
2017-05-18T16:11:27.249Z,31.01
2017-05-18T16:12:43.119Z,31.19
2017-05-18T16:13:57.415Z,31.28
2017-05-18T16:15:11.493Z,31.48
2017-05-18T16:16:27.164Z,31.46
2017-05-18T16:18:12.364Z,31.95